Terminal Aerodrome Forecast
Issued by NWS Sterling, VA

Home | Current Version | Previous Version | Text Only | Print | Product List | Glossary On
Versions: 1 2 3 4 5 6 7 8 9 10 11 12 13 14 15 16 17 18 19 20 21 22 23 24 25 26 27 28
000
FTUS41 KLWX 031732
TAFDCA
TAF
KDCA 031732Z 0318/0418 13005KT P6SM FEW060
     FM040300 20004KT P6SM FEW250
     FM041400 19006KT P6SM FEW050
     FM041700 19010KT P6SM SCT050=

USA.gov is the U.S. government's official web portal to all federal, state and local government web resources and services.